createdAt,value
2017-04-21T00:00:12.127Z,88.60
2017-04-21T00:01:12.812Z,88.36
2017-04-21T00:02:13.191Z,87.90
2017-04-21T00:03:13.869Z,87.59
2017-04-21T00:04:14.251Z,87.59
2017-04-21T00:05:14.796Z,87.37
2017-04-21T00:06:15.313Z,87.74
2017-04-21T00:07:15.994Z,88.07
2017-04-21T00:08:16.377Z,88.04
2017-04-21T00:09:16.905Z,88.33
2017-04-21T00:10:17.432Z,88.25
2017-04-21T00:11:17.960Z,90.02
2017-04-21T00:12:18.496Z,89.37
2017-04-21T00:13:19.020Z,88.79
2017-04-21T00:14:19.549Z,88.79
2017-04-21T00:15:20.071Z,88.84
2017-04-21T00:16:20.606Z,89.14
2017-04-21T00:17:21.133Z,89.54
2017-04-21T00:18:21.670Z,90.80
2017-04-21T00:19:22.196Z,90.90
2017-04-21T00:20:22.726Z,90.61
2017-04-21T00:21:23.255Z,90.66
2017-04-21T00:22:23.785Z,90.50
2017-04-21T00:23:24.312Z,91.30
2017-04-21T00:24:24.846Z,91.73
2017-04-21T00:25:25.400Z,91.68
2017-04-21T00:26:25.910Z,92.11
2017-04-21T00:27:26.434Z,92.38
2017-04-21T00:28:26.968Z,92.16
2017-04-21T00:29:27.490Z,91.82
2017-04-21T00:30:28.019Z,91.65
2017-04-21T00:31:28.699Z,91.57
2017-04-21T00:32:29.081Z,91.22
2017-04-21T00:33:29.615Z,91.33
2017-04-21T00:34:30.139Z,91.09
2017-04-21T00:35:30.668Z,90.74
2017-04-21T00:36:31.199Z,90.26
2017-04-21T00:37:31.724Z,91.52
2017-04-21T00:38:32.254Z,91.92
2017-04-21T00:39:32.937Z,92.84
2017-04-21T00:40:33.325Z,93.05
2017-04-21T00:41:33.857Z,92.81
2017-04-21T00:42:34.396Z,93.37
2017-04-21T00:43:34.933Z,93.26
2017-04-21T00:44:35.462Z,93.32
2017-04-21T00:45:36.137Z,93.37
2017-04-21T00:46:36.522Z,93.56
2017-04-21T00:47:37.048Z,93.64
2017-04-21T00:48:37.579Z,93.96
2017-04-21T00:49:38.109Z,94.04
2017-04-21T00:50:38.643Z,94.34
2017-04-21T00:51:39.168Z,94.59
2017-04-21T00:52:39.693Z,94.69
2017-04-21T00:53:40.231Z,94.50
2017-04-21T00:54:40.754Z,94.21
2017-04-21T00:55:41.432Z,94.48
2017-04-21T00:56:41.814Z,94.69
2017-04-21T00:57:42.491Z,94.99
2017-04-21T00:58:42.875Z,95.12
2017-04-21T00:59:43.401Z,94.93
2017-04-21T01:00:43.928Z,94.61
2017-04-21T01:01:44.495Z,94.56
2017-04-21T01:02:44.992Z,94.02
2017-04-21T01:04:46.053Z,94.31
2017-04-21T01:05:46.573Z,94.23
2017-04-21T01:06:47.111Z,94.56
2017-04-21T01:07:47.637Z,94.96
2017-04-21T01:08:48.165Z,95.85
2017-04-21T01:09:48.694Z,96.13
2017-04-21T01:10:49.226Z,96.20
2017-04-21T01:11:49.749Z,96.23
2017-04-21T01:12:50.287Z,95.98
2017-04-21T01:13:50.806Z,95.58
2017-04-21T01:14:51.340Z,95.31
2017-04-21T01:15:51.868Z,95.01
2017-04-21T01:16:52.399Z,95.47
2017-04-21T01:17:52.932Z,95.58
2017-04-21T01:18:53.456Z,95.80
2017-04-21T01:19:53.992Z,95.72
2017-04-21T01:20:54.518Z,95.77
2017-04-21T01:21:55.053Z,95.75
2017-04-21T01:22:55.589Z,95.83
2017-04-21T01:23:56.121Z,95.80
2017-04-21T01:24:56.799Z,95.72
2017-04-21T01:25:57.331Z,95.20
2017-04-21T01:26:57.717Z,94.93
2017-04-21T01:27:58.242Z,94.77
2017-04-21T01:28:58.772Z,95.88
2017-04-21T01:29:59.453Z,95.98
2017-04-21T01:30:59.833Z,95.98
2017-04-21T01:32:00.364Z,96.13
2017-04-21T01:33:00.897Z,96.42
2017-04-21T01:34:01.429Z,96.47
2017-04-21T01:35:01.956Z,96.53
2017-04-21T01:36:02.483Z,96.45
2017-04-21T01:37:03.016Z,96.45
2017-04-21T01:38:03.543Z,96.72
2017-04-21T01:39:04.073Z,96.72
2017-04-21T01:40:04.599Z,96.58
2017-04-21T01:41:05.132Z,96.36
2017-04-21T01:42:05.809Z,96.15
2017-04-21T01:43:06.196Z,96.04
2017-04-21T01:44:06.717Z,96.07
2017-04-21T01:45:07.252Z,96.17
2017-04-21T01:46:07.771Z,96.15
2017-04-21T01:47:08.306Z,95.91
2017-04-21T01:48:08.841Z,95.94
2017-04-21T01:49:09.365Z,96.04
2017-04-21T01:50:09.899Z,96.09
2017-04-21T01:51:10.452Z,96.20
2017-04-21T01:52:10.951Z,96.09
2017-04-21T01:53:11.484Z,96.02
2017-04-21T01:54:12.016Z,95.88
2017-04-21T01:55:12.544Z,95.75
2017-04-21T01:56:13.087Z,95.75
2017-04-21T01:57:13.600Z,95.66
2017-04-21T01:58:14.131Z,96.20
2017-04-21T01:59:14.671Z,96.77
2017-04-21T02:00:15.219Z,97.12
2017-04-21T02:01:15.716Z,97.28
2017-04-21T02:02:16.398Z,97.39
2017-04-21T02:03:16.779Z,97.34
2017-04-21T02:04:17.308Z,97.21
2017-04-21T02:05:17.848Z,97.04
2017-04-21T02:06:18.381Z,96.96
2017-04-21T02:07:18.918Z,97.02
2017-04-21T02:08:19.445Z,97.04
2017-04-21T02:09:19.977Z,96.91
2017-04-21T02:10:20.503Z,96.80
2017-04-21T02:11:21.041Z,96.58
2017-04-21T02:12:21.561Z,96.28
2017-04-21T02:13:22.099Z,95.94
2017-04-21T02:14:22.631Z,95.61
2017-04-21T02:15:23.153Z,95.34
2017-04-21T02:16:23.834Z,95.23
2017-04-21T02:17:24.220Z,95.23
2017-04-21T02:18:24.894Z,95.04
2017-04-21T02:19:25.274Z,94.96
2017-04-21T02:20:25.961Z,95.04
2017-04-21T02:21:26.332Z,95.23
2017-04-21T02:22:26.868Z,95.20
2017-04-21T02:23:27.407Z,95.47
2017-04-21T02:24:27.926Z,95.85
2017-04-21T02:25:28.459Z,96.07
2017-04-21T02:26:28.986Z,96.20
2017-04-21T02:27:29.516Z,96.28
2017-04-21T02:28:30.044Z,96.17
2017-04-21T02:29:30.578Z,96.13
2017-04-21T02:30:31.256Z,96.09
2017-04-21T02:31:31.641Z,96.13
2017-04-21T02:32:32.176Z,96.20
2017-04-21T02:33:32.698Z,96.28
2017-04-21T02:34:33.224Z,96.36
2017-04-21T02:35:33.752Z,96.61
2017-04-21T02:36:34.282Z,96.77
2017-04-21T02:37:34.809Z,96.88
2017-04-21T02:38:35.338Z,97.02
2017-04-21T02:39:35.874Z,97.04
2017-04-21T02:40:36.551Z,97.04
2017-04-21T02:41:36.928Z,96.93
2017-04-21T02:42:37.494Z,96.93
2017-04-21T02:43:37.994Z,96.93
2017-04-21T02:44:38.519Z,96.93
2017-04-21T02:45:39.054Z,96.93
2017-04-21T02:46:39.583Z,96.91
2017-04-21T02:47:40.120Z,97.34
2017-04-21T02:48:40.649Z,97.50
2017-04-21T02:49:41.181Z,97.74
2017-04-21T02:50:41.711Z,97.80
2017-04-21T02:51:42.242Z,97.88
2017-04-21T02:52:42.776Z,97.88
2017-04-21T02:53:43.309Z,97.72
2017-04-21T02:54:43.834Z,97.58
2017-04-21T02:55:44.366Z,97.42
2017-04-21T02:56:44.898Z,97.28
2017-04-21T02:57:45.431Z,96.99
2017-04-21T02:58:45.955Z,96.91
2017-04-21T02:59:46.484Z,96.85
2017-04-21T03:00:47.016Z,96.72
2017-04-21T03:01:47.548Z,96.55
2017-04-21T03:02:48.086Z,96.23
2017-04-21T03:03:48.607Z,95.72
2017-04-21T03:04:49.139Z,95.47
2017-04-21T03:05:49.669Z,95.39
2017-04-21T03:06:50.198Z,95.37
2017-04-21T03:07:50.722Z,94.72
2017-04-21T03:08:51.255Z,94.07
2017-04-21T03:09:51.784Z,93.51
2017-04-21T03:10:52.324Z,93.16
2017-04-21T03:11:52.849Z,93.02
2017-04-21T03:12:53.524Z,92.97
2017-04-21T03:13:53.909Z,92.95
2017-04-21T03:14:54.589Z,93.29
2017-04-21T03:15:54.968Z,93.13
2017-04-21T03:16:55.647Z,92.97
2017-04-21T03:17:56.027Z,92.70
2017-04-21T03:18:56.557Z,92.27
2017-04-21T03:19:57.237Z,92.19
2017-04-21T03:20:57.628Z,92.14
2017-04-21T03:21:58.153Z,92.14
2017-04-21T03:22:58.680Z,92.05
2017-04-21T03:23:59.210Z,92.11
2017-04-21T03:24:59.752Z,92.16
2017-04-21T03:26:00.283Z,92.16
2017-04-21T03:27:00.808Z,92.35
2017-04-21T03:28:01.336Z,91.71
2017-04-21T03:29:02.021Z,91.38
2017-04-21T03:30:02.552Z,91.41
2017-04-21T03:31:02.951Z,91.47
2017-04-21T03:32:03.466Z,91.47
2017-04-21T03:33:04.006Z,91.55
2017-04-21T03:34:04.525Z,91.28
2017-04-21T03:35:05.046Z,91.38
2017-04-21T03:36:05.588Z,91.36
2017-04-21T03:37:06.268Z,91.49
2017-04-21T03:38:06.638Z,91.55
2017-04-21T03:39:07.167Z,91.55
2017-04-21T03:40:07.726Z,91.65
2017-04-21T03:41:08.229Z,91.82
2017-04-21T03:42:08.759Z,91.79
2017-04-21T03:43:09.285Z,91.55
2017-04-21T03:44:09.819Z,91.17
2017-04-21T03:45:10.371Z,91.01
2017-04-21T03:46:10.878Z,90.69
2017-04-21T03:47:11.407Z,90.61
2017-04-21T03:48:11.935Z,90.55
2017-04-21T03:49:12.622Z,90.34
2017-04-21T03:50:12.998Z,90.42
2017-04-21T03:51:13.528Z,90.61
2017-04-21T03:52:14.058Z,90.63
2017-04-21T03:53:14.586Z,90.39
2017-04-21T03:54:15.114Z,90.02
2017-04-21T03:55:15.642Z,90.15
2017-04-21T03:56:16.173Z,90.36
2017-04-21T03:57:16.858Z,90.26
2017-04-21T03:58:17.232Z,90.34
2017-04-21T03:59:17.765Z,90.13
2017-04-21T04:00:18.294Z,89.99
2017-04-21T04:01:18.842Z,89.88
2017-04-21T04:02:19.352Z,89.27
2017-04-21T04:03:19.882Z,89.27
2017-04-21T04:04:20.415Z,89.40
2017-04-21T04:05:21.091Z,88.92
2017-04-21T04:06:21.470Z,88.92
2017-04-21T04:07:22.152Z,88.95
2017-04-21T04:08:22.535Z,88.57
2017-04-21T04:09:23.068Z,88.71
2017-04-21T04:10:23.607Z,88.76
2017-04-21T04:11:24.144Z,88.79
2017-04-21T04:12:24.669Z,89.40
2017-04-21T04:13:25.202Z,89.80
2017-04-21T04:14:25.729Z,90.15
2017-04-21T04:15:26.259Z,90.20
2017-04-21T04:16:26.791Z,90.05
2017-04-21T04:17:27.326Z,90.05
2017-04-21T04:18:27.854Z,90.05
2017-04-21T04:19:28.389Z,89.94
2017-04-21T04:20:28.910Z,89.80
2017-04-21T04:21:29.433Z,89.48
2017-04-21T04:22:29.963Z,89.54
2017-04-21T04:23:30.492Z,89.83
2017-04-21T04:24:31.025Z,89.75
2017-04-21T04:25:31.551Z,89.35
2017-04-21T04:26:32.083Z,89.16
2017-04-21T04:27:32.604Z,88.60
2017-04-21T04:28:33.139Z,87.85
2017-04-21T04:29:33.669Z,87.74
2017-04-21T04:30:34.344Z,87.26
2017-04-21T04:31:34.881Z,86.94
2017-04-21T04:32:35.262Z,87.05
2017-04-21T04:33:35.788Z,88.20
2017-04-21T04:34:36.317Z,88.50
2017-04-21T04:35:36.848Z,87.61
2017-04-21T04:36:37.379Z,87.00
2017-04-21T04:37:37.917Z,86.87
2017-04-21T04:38:38.433Z,85.64
2017-04-21T04:39:39.114Z,85.85
2017-04-21T04:40:39.497Z,85.85
2017-04-21T04:41:40.037Z,85.32
2017-04-21T04:42:40.550Z,84.81
2017-04-21T04:43:41.076Z,84.68
2017-04-21T04:44:41.609Z,84.97
2017-04-21T04:45:42.135Z,85.08
2017-04-21T04:46:42.665Z,84.92
2017-04-21T04:47:43.193Z,84.81
2017-04-21T04:48:43.874Z,84.74
2017-04-21T04:49:44.425Z,84.68
2017-04-21T04:50:44.792Z,84.42
2017-04-21T04:51:45.321Z,84.50
2017-04-21T04:52:45.857Z,84.31
2017-04-21T04:53:46.393Z,83.59
2017-04-21T04:54:46.921Z,83.86
2017-04-21T04:55:47.456Z,83.81
2017-04-21T04:56:47.985Z,83.62
2017-04-21T04:57:48.511Z,83.91
2017-04-21T04:58:49.044Z,82.90
2017-04-21T04:59:49.571Z,82.59
2017-04-21T05:00:50.104Z,83.20
2017-04-21T05:01:50.787Z,82.82
2017-04-21T05:02:51.163Z,81.79
2017-04-21T05:03:51.705Z,81.08
2017-04-21T05:04:52.229Z,80.81
2017-04-21T05:05:52.758Z,80.57
2017-04-21T05:06:53.432Z,80.92
2017-04-21T05:07:53.814Z,80.89
2017-04-21T05:08:54.345Z,80.89
2017-04-21T05:09:54.875Z,80.84
2017-04-21T05:10:55.405Z,81.10
2017-04-21T05:11:56.088Z,81.10
2017-04-21T05:12:56.480Z,81.50
2017-04-21T05:13:57.006Z,81.24
2017-04-21T05:14:57.532Z,81.40
2017-04-21T05:15:58.068Z,81.13
2017-04-21T05:16:58.584Z,80.21
2017-04-21T05:17:59.111Z,80.44
2017-04-21T05:18:59.646Z,79.10
2017-04-21T05:20:00.175Z,79.05
2017-04-21T05:21:00.701Z,78.59
2017-04-21T05:22:01.383Z,77.99
2017-04-21T05:23:01.763Z,78.17
2017-04-21T05:24:02.440Z,78.12
2017-04-21T05:25:02.832Z,77.39
2017-04-21T05:26:03.364Z,78.75
2017-04-21T05:27:03.880Z,77.65
2017-04-21T05:28:04.408Z,76.23
2017-04-21T05:29:04.934Z,75.73
2017-04-21T05:30:05.612Z,77.07
2017-04-21T05:31:05.995Z,76.91
2017-04-21T05:32:06.526Z,76.62
2017-04-21T05:33:07.059Z,77.31
2017-04-21T05:34:07.740Z,77.09
2017-04-21T05:35:08.118Z,76.62
2017-04-21T05:36:08.655Z,75.29
2017-04-21T05:37:09.194Z,76.02
2017-04-21T05:38:09.868Z,76.49
2017-04-21T05:39:10.264Z,76.15
2017-04-21T05:40:10.777Z,75.34
2017-04-21T05:41:11.308Z,74.87
2017-04-21T05:42:11.991Z,74.36
2017-04-21T05:43:12.367Z,75.23
2017-04-21T05:44:12.902Z,74.79
2017-04-21T05:45:13.429Z,74.81
2017-04-21T05:46:13.956Z,74.47
2017-04-21T05:47:14.489Z,73.87
2017-04-21T05:48:15.017Z,73.95
2017-04-21T05:49:15.548Z,73.22
2017-04-21T05:50:16.073Z,72.43
2017-04-21T05:51:16.608Z,73.58
2017-04-21T05:52:17.131Z,73.93
2017-04-21T05:53:17.666Z,73.77
2017-04-21T05:54:18.199Z,73.97
2017-04-21T05:55:18.724Z,73.87
2017-04-21T05:56:19.253Z,73.03
2017-04-21T05:57:19.788Z,73.79
2017-04-21T05:58:20.321Z,72.28
2017-04-21T05:59:20.860Z,72.20
2017-04-21T06:00:21.530Z,72.80
2017-04-21T06:01:21.909Z,72.77
2017-04-21T06:02:22.440Z,73.06
2017-04-21T06:03:22.970Z,72.30
2017-04-21T06:04:23.649Z,71.89
2017-04-21T06:05:24.027Z,73.87
2017-04-21T06:06:24.560Z,72.04
2017-04-21T06:07:25.085Z,71.57
2017-04-21T06:08:25.615Z,70.74
2017-04-21T06:09:26.146Z,70.45
2017-04-21T06:10:26.677Z,69.30
2017-04-21T06:11:27.207Z,69.85
2017-04-21T06:12:27.882Z,70.35
2017-04-21T06:13:28.411Z,69.54
2017-04-21T06:14:28.804Z,69.54
2017-04-21T06:15:29.332Z,69.67
2017-04-21T06:16:29.861Z,69.05
2017-04-21T06:17:30.409Z,69.38
2017-04-21T06:18:30.928Z,70.11
2017-04-21T06:19:31.458Z,69.34
2017-04-21T06:20:31.979Z,68.06
2017-04-21T06:21:32.507Z,69.80
2017-04-21T06:22:33.037Z,68.04
2017-04-21T06:23:33.565Z,68.45
2017-04-21T06:24:34.095Z,68.29
2017-04-21T06:25:34.631Z,67.39
2017-04-21T06:26:35.153Z,67.36
2017-04-21T06:27:35.686Z,67.91
2017-04-21T06:28:36.222Z,66.97
2017-04-21T06:29:36.754Z,67.98
2017-04-21T06:30:37.278Z,67.25
2017-04-21T06:31:37.810Z,67.64
2017-04-21T06:32:38.336Z,66.97
2017-04-21T06:33:38.871Z,67.83
2017-04-21T06:34:39.396Z,67.33
2017-04-21T06:35:39.928Z,67.85
2017-04-21T06:36:40.455Z,68.04
2017-04-21T06:37:40.984Z,68.32
2017-04-21T06:38:41.659Z,67.93
2017-04-21T06:39:42.044Z,67.98
2017-04-21T06:40:42.722Z,68.16
2017-04-21T06:41:43.106Z,66.66
2017-04-21T06:42:43.626Z,68.01
2017-04-21T06:43:44.164Z,67.46
2017-04-21T06:44:44.842Z,68.11
2017-04-21T06:45:45.222Z,67.77
2017-04-21T06:46:45.755Z,67.41
2017-04-21T06:47:46.286Z,67.98
2017-04-21T06:48:46.809Z,67.93
2017-04-21T06:49:47.342Z,67.49
2017-04-21T06:50:47.872Z,67.36
2017-04-21T06:51:48.405Z,67.18
2017-04-21T06:52:48.933Z,66.71
2017-04-21T06:53:49.465Z,65.89
2017-04-21T06:54:49.998Z,66.12
2017-04-21T06:55:50.527Z,65.89
2017-04-21T06:56:51.058Z,66.01
2017-04-21T06:57:51.591Z,65.68
2017-04-21T06:58:52.125Z,66.06
2017-04-21T06:59:52.658Z,65.01
2017-04-21T07:00:53.221Z,65.29
2017-04-21T07:01:54.615Z,63.92
2017-04-21T07:02:54.241Z,63.87
2017-04-21T07:03:54.778Z,62.40
2017-04-21T07:04:55.304Z,63.07
2017-04-21T07:05:55.839Z,62.97
2017-04-21T07:06:56.364Z,63.15
2017-04-21T07:07:56.896Z,64.26
2017-04-21T07:08:57.420Z,62.71
2017-04-21T07:09:57.959Z,62.69
2017-04-21T07:10:58.481Z,61.71
2017-04-21T07:11:59.020Z,62.99
2017-04-21T07:12:59.539Z,63.20
2017-04-21T07:14:00.071Z,61.78
2017-04-21T07:15:00.602Z,61.63
2017-04-21T07:16:01.136Z,62.40
2017-04-21T07:17:01.811Z,63.20
2017-04-21T07:18:02.194Z,62.69
2017-04-21T07:19:02.723Z,60.76
2017-04-21T07:20:03.252Z,60.33
2017-04-21T07:21:03.928Z,60.89
2017-04-21T07:22:04.312Z,62.92
2017-04-21T07:23:04.842Z,61.58
2017-04-21T07:24:05.373Z,60.94
2017-04-21T07:25:05.902Z,61.30
2017-04-21T07:26:06.427Z,61.58
2017-04-21T07:27:06.955Z,61.89
2017-04-21T07:28:07.492Z,62.77
2017-04-21T07:29:08.019Z,60.22
2017-04-21T07:30:08.551Z,61.94
2017-04-21T07:31:09.076Z,64.23
2017-04-21T07:32:09.609Z,69.54
2017-04-21T07:33:10.146Z,65.60
2017-04-21T07:34:10.672Z,64.26
2017-04-21T07:35:11.217Z,65.03
2017-04-21T07:36:11.731Z,67.52
2017-04-21T07:37:12.260Z,65.58
2017-04-21T07:38:12.791Z,66.97
2017-04-21T07:39:13.596Z,67.93
2017-04-21T07:40:13.860Z,63.72
2017-04-21T07:41:14.417Z,62.74
2017-04-21T07:42:14.935Z,66.43
2017-04-21T07:43:15.462Z,66.37
2017-04-21T07:44:15.999Z,64.82
2017-04-21T07:45:16.523Z,67.05
2017-04-21T07:46:17.062Z,68.11
2017-04-21T07:47:17.583Z,64.05
2017-04-21T07:48:18.120Z,65.60
2017-04-21T07:49:18.634Z,63.82
2017-04-21T07:50:19.167Z,62.77
2017-04-21T07:51:19.693Z,65.91
2017-04-21T07:52:20.226Z,65.73
2017-04-21T07:53:20.753Z,65.81
2017-04-21T07:54:21.287Z,65.53
2017-04-21T07:55:21.809Z,63.02
2017-04-21T07:56:22.345Z,63.74
2017-04-21T07:57:22.865Z,60.73
2017-04-21T07:58:23.396Z,60.09
2017-04-21T07:59:23.932Z,60.81
2017-04-21T08:00:24.463Z,61.53
2017-04-21T08:01:24.992Z,59.81
2017-04-21T08:02:25.516Z,61.09
2017-04-21T08:03:26.047Z,60.30
2017-04-21T08:04:26.580Z,60.05
2017-04-21T08:05:27.255Z,64.54
2017-04-21T08:06:27.639Z,65.91
2017-04-21T08:07:28.199Z,57.76
2017-04-21T08:08:28.702Z,57.23
2017-04-21T08:09:29.217Z,59.71
2017-04-21T08:10:29.756Z,59.35
2017-04-21T08:11:30.283Z,60.53
2017-04-21T08:12:30.808Z,58.02
2017-04-21T08:13:31.336Z,59.04
2017-04-21T08:14:31.866Z,59.17
2017-04-21T08:15:32.393Z,56.95
2017-04-21T08:16:32.938Z,57.36
2017-04-21T08:17:33.454Z,58.10
2017-04-21T08:18:33.986Z,59.45
2017-04-21T08:19:34.516Z,60.97
2017-04-21T08:20:35.048Z,57.21
2017-04-21T08:21:35.584Z,59.12
2017-04-21T08:22:36.120Z,57.61
2017-04-21T08:23:36.652Z,55.47
2017-04-21T08:24:37.184Z,57.43
2017-04-21T08:25:37.715Z,59.89
2017-04-21T08:26:38.246Z,58.46
2017-04-21T08:27:38.781Z,54.25
2017-04-21T08:28:39.305Z,54.48
2017-04-21T08:29:39.983Z,56.49
2017-04-21T08:30:40.508Z,54.08
2017-04-21T08:31:40.891Z,55.09
2017-04-21T08:32:41.569Z,55.72
2017-04-21T08:33:42.100Z,52.40
2017-04-21T08:34:42.486Z,54.63
2017-04-21T08:35:43.013Z,57.02
2017-04-21T08:36:43.540Z,55.96
2017-04-21T08:37:44.074Z,58.84
2017-04-21T08:38:44.609Z,58.56
2017-04-21T08:39:45.131Z,58.84
2017-04-21T08:40:45.660Z,61.74
2017-04-21T08:41:46.190Z,62.20
2017-04-21T08:42:46.724Z,57.51
2017-04-21T08:43:47.248Z,60.76
2017-04-21T08:44:47.787Z,57.36
2017-04-21T08:45:48.308Z,57.15
2017-04-21T08:46:48.844Z,59.94
2017-04-21T08:47:49.370Z,57.18
2017-04-21T08:48:49.912Z,60.35
2017-04-21T08:49:50.425Z,59.45
2017-04-21T08:50:51.105Z,57.82
2017-04-21T08:51:51.489Z,59.07
2017-04-21T08:52:52.022Z,59.76
2017-04-21T08:53:52.694Z,57.71
2017-04-21T08:54:53.077Z,57.84
2017-04-21T08:55:53.602Z,58.40
2017-04-21T08:56:54.133Z,57.56
2017-04-21T08:57:54.681Z,55.72
2017-04-21T08:58:55.199Z,56.11
2017-04-21T08:59:55.727Z,56.41
2017-04-21T09:00:56.256Z,55.80
2017-04-21T09:01:56.789Z,55.88
2017-04-21T09:02:57.321Z,55.75
2017-04-21T09:03:57.851Z,55.02
2017-04-21T09:04:58.383Z,54.96
2017-04-21T09:05:58.927Z,56.44
2017-04-21T09:06:59.450Z,54.66
2017-04-21T09:07:59.978Z,53.97
2017-04-21T09:09:00.512Z,53.62
2017-04-21T09:10:01.038Z,53.21
2017-04-21T09:11:01.571Z,52.88
2017-04-21T09:12:02.096Z,53.79
2017-04-21T09:13:02.772Z,54.68
2017-04-21T09:14:03.155Z,56.36
2017-04-21T09:15:03.688Z,54.83
2017-04-21T09:16:04.229Z,54.15
2017-04-21T09:17:04.753Z,53.18
2017-04-21T09:18:05.309Z,54.37
2017-04-21T09:19:05.806Z,53.92
2017-04-21T09:20:06.332Z,51.95
2017-04-21T09:21:06.868Z,52.50
2017-04-21T09:22:07.393Z,53.29
2017-04-21T09:23:07.932Z,51.66
2017-04-21T09:24:08.458Z,51.99
2017-04-21T09:25:08.991Z,53.29
2017-04-21T09:26:09.514Z,51.71
2017-04-21T09:27:10.053Z,51.82
2017-04-21T09:28:10.728Z,52.96
2017-04-21T09:29:11.109Z,52.07
2017-04-21T09:30:11.638Z,53.54
2017-04-21T09:31:12.353Z,51.46
2017-04-21T09:32:12.845Z,50.18
2017-04-21T09:33:13.372Z,50.07
2017-04-21T09:34:13.769Z,49.92
2017-04-21T09:35:14.286Z,50.33
2017-04-21T09:36:14.812Z,51.44
2017-04-21T09:37:15.346Z,50.60
2017-04-21T09:38:15.876Z,51.46
2017-04-21T09:39:16.410Z,51.57
2017-04-21T09:40:16.943Z,51.41
2017-04-21T09:41:17.469Z,51.54
2017-04-21T09:42:17.997Z,52.57
2017-04-21T09:43:18.529Z,51.82
2017-04-21T09:44:19.060Z,51.84
2017-04-21T09:45:19.591Z,51.44
2017-04-21T09:46:20.121Z,51.99
2017-04-21T09:47:20.658Z,52.37
2017-04-21T09:48:21.192Z,53.21
2017-04-21T09:50:23.698Z,53.34
2017-04-21T09:51:32.197Z,53.95
2017-04-21T09:53:23.843Z,52.78
2017-04-21T09:54:06.190Z,54.02
2017-04-21T09:57:06.047Z,54.00
2017-04-21T09:57:10.789Z,53.49
2017-04-21T09:59:47.413Z,53.11
2017-04-21T09:59:48.151Z,53.47
2017-04-21T10:00:04.453Z,54.35
2017-04-21T10:01:22.008Z,53.31
2017-04-21T10:04:13.189Z,54.41
2017-04-21T10:06:25.851Z,52.81
2017-04-21T10:06:30.728Z,53.75
2017-04-21T10:06:51.588Z,53.39
2017-04-21T10:07:27.537Z,52.50
2017-04-21T10:07:38.360Z,52.90
2017-04-21T10:07:59.736Z,53.95
2017-04-21T10:08:31.779Z,52.90
2017-04-21T10:08:33.232Z,51.95
2017-04-21T10:09:32.305Z,53.72
2017-04-21T10:11:33.369Z,52.37
2017-04-21T10:12:33.894Z,51.33
2017-04-21T10:13:34.419Z,52.50
2017-04-21T10:14:34.961Z,51.95
2017-04-21T10:15:35.499Z,51.29
2017-04-21T10:16:36.006Z,50.68
2017-04-21T10:17:36.543Z,51.51
2017-04-21T10:18:37.071Z,51.37
2017-04-21T10:19:37.603Z,51.69
2017-04-21T10:20:38.129Z,51.59
2017-04-21T10:21:38.661Z,52.17
2017-04-21T10:22:39.191Z,52.17
2017-04-21T10:24:40.256Z,52.96
2017-04-21T10:25:40.781Z,53.51
2017-04-21T10:26:41.320Z,52.98
2017-04-21T10:27:41.840Z,52.15
2017-04-21T10:28:42.377Z,51.59
2017-04-21T10:29:42.903Z,51.89
2017-04-21T10:30:43.439Z,52.35
2017-04-21T10:31:43.972Z,52.12
2017-04-21T10:32:44.499Z,53.79
2017-04-21T10:33:45.024Z,51.82
2017-04-21T10:34:45.551Z,52.20
2017-04-21T10:35:46.082Z,51.57
2017-04-21T10:36:46.609Z,53.59
2017-04-21T10:37:47.168Z,52.83
2017-04-21T10:38:47.671Z,52.22
2017-04-21T10:39:48.346Z,53.09
2017-04-21T10:40:48.727Z,51.82
2017-04-21T10:41:49.260Z,51.29
2017-04-21T10:42:49.786Z,52.50
2017-04-21T10:43:50.319Z,51.11
2017-04-21T10:44:50.847Z,52.63
2017-04-21T10:45:51.374Z,51.26
2017-04-21T10:46:51.906Z,51.49
2017-04-21T10:47:52.443Z,52.30
2017-04-21T10:48:52.965Z,51.66
2017-04-21T10:49:53.642Z,51.62
2017-04-21T10:50:54.028Z,49.87
2017-04-21T10:51:54.553Z,50.80
2017-04-21T10:52:55.100Z,50.05
2017-04-21T10:53:55.618Z,50.50
2017-04-21T10:54:56.138Z,51.08
2017-04-21T10:55:56.671Z,50.45
2017-04-21T10:56:57.194Z,49.97
2017-04-21T10:57:57.725Z,50.45
2017-04-21T10:58:58.267Z,50.60
2017-04-21T10:59:58.788Z,50.00
2017-04-21T11:00:59.310Z,49.87
2017-04-21T11:01:59.840Z,49.57
2017-04-21T11:03:00.370Z,49.47
2017-04-21T11:04:00.901Z,49.39
2017-04-21T11:05:01.431Z,51.29
2017-04-21T11:06:01.964Z,50.15
2017-04-21T11:07:02.491Z,49.06
2017-04-21T11:08:03.048Z,49.24
2017-04-21T11:09:03.562Z,49.49
2017-04-21T11:10:04.093Z,50.38
2017-04-21T11:11:04.659Z,49.60
2017-04-21T11:12:05.161Z,47.98
2017-04-21T11:13:05.688Z,48.84
2017-04-21T11:14:06.222Z,50.71
2017-04-21T11:15:06.745Z,49.95
2017-04-21T11:16:07.274Z,48.81
2017-04-21T11:17:07.815Z,49.32
2017-04-21T11:18:08.332Z,49.09
2017-04-21T11:19:09.006Z,49.19
2017-04-21T11:20:09.395Z,49.97
2017-04-21T11:21:09.917Z,49.37
2017-04-21T11:22:10.597Z,50.22
2017-04-21T11:23:11.128Z,50.35
2017-04-21T11:24:11.504Z,50.10
2017-04-21T11:25:12.065Z,49.90
2017-04-21T11:26:12.561Z,50.91
2017-04-21T11:27:13.089Z,51.29
2017-04-21T11:28:13.618Z,49.97
2017-04-21T11:29:14.147Z,50.58
2017-04-21T11:30:14.680Z,50.05
2017-04-21T11:31:15.358Z,50.78
2017-04-21T11:32:15.736Z,50.60
2017-04-21T11:33:16.267Z,50.66
2017-04-21T11:34:16.796Z,49.02
2017-04-21T11:35:17.327Z,48.92
2017-04-21T11:36:17.857Z,49.57
2017-04-21T11:37:18.382Z,49.60
2017-04-21T11:38:19.059Z,49.87
2017-04-21T11:39:19.459Z,50.22
2017-04-21T11:40:19.969Z,49.97
2017-04-21T11:41:20.502Z,49.87
2017-04-21T11:42:21.026Z,48.51
2017-04-21T11:43:21.705Z,48.86
2017-04-21T11:44:22.089Z,47.48
2017-04-21T11:45:22.617Z,47.40
2017-04-21T11:46:23.149Z,48.16
2017-04-21T11:47:23.672Z,47.86
2017-04-21T11:48:24.215Z,48.36
2017-04-21T11:49:24.890Z,49.17
2017-04-21T11:50:25.267Z,48.03
2017-04-21T11:51:25.809Z,47.43
2017-04-21T11:52:26.336Z,48.26
2017-04-21T11:53:26.866Z,47.58
2017-04-21T11:54:27.403Z,46.98
2017-04-21T11:55:27.927Z,46.38
2017-04-21T11:56:28.475Z,47.56
2017-04-21T11:57:28.989Z,48.39
2017-04-21T11:58:29.520Z,46.23
2017-04-21T11:59:30.199Z,46.02
2017-04-21T12:00:30.586Z,47.61
2017-04-21T12:01:31.110Z,47.91
2017-04-21T12:02:31.649Z,48.26
2017-04-21T12:03:32.183Z,47.06
2017-04-21T12:04:32.715Z,47.23
2017-04-21T12:05:33.237Z,48.34
2017-04-21T12:06:33.761Z,48.79
2017-04-21T12:07:34.307Z,48.51
2017-04-21T12:08:34.822Z,48.86
2017-04-21T12:09:35.349Z,50.58
2017-04-21T12:10:35.878Z,49.85
2017-04-21T12:11:36.555Z,50.63
2017-04-21T12:12:36.937Z,50.02
2017-04-21T12:13:37.468Z,50.13
2017-04-21T12:14:38.006Z,51.46
2017-04-21T12:15:38.674Z,53.79
2017-04-21T12:16:39.201Z,50.40
2017-04-21T12:17:39.582Z,51.82
2017-04-21T12:18:40.111Z,51.59
2017-04-21T12:19:40.641Z,50.27
2017-04-21T12:20:41.175Z,50.93
2017-04-21T12:21:41.851Z,52.98
2017-04-21T12:22:42.229Z,51.39
2017-04-21T12:23:42.759Z,51.01
2017-04-21T12:24:43.284Z,51.71
2017-04-21T12:25:43.813Z,52.85
2017-04-21T12:26:44.343Z,52.20
2017-04-21T12:27:44.870Z,52.35
2017-04-21T12:28:45.549Z,52.32
2017-04-21T12:29:45.933Z,53.69
2017-04-21T12:30:46.463Z,53.29
2017-04-21T12:31:46.997Z,52.50
2017-04-21T12:32:47.520Z,53.36
2017-04-21T12:33:48.052Z,53.18
2017-04-21T12:34:48.585Z,53.67
2017-04-21T12:35:49.122Z,53.87
2017-04-21T12:36:49.656Z,53.59
2017-04-21T12:37:50.181Z,53.26
2017-04-21T12:38:50.715Z,54.58
2017-04-21T12:39:51.395Z,54.20
2017-04-21T12:40:51.774Z,54.86
2017-04-21T12:41:52.300Z,55.63
2017-04-21T12:42:52.833Z,55.45
2017-04-21T12:43:53.512Z,54.89
2017-04-21T12:44:53.893Z,55.24
2017-04-21T12:45:54.421Z,55.17
2017-04-21T12:46:54.957Z,55.98
2017-04-21T12:47:55.496Z,55.65
2017-04-21T12:48:56.016Z,56.24
2017-04-21T12:49:56.543Z,56.46
2017-04-21T12:50:57.075Z,56.90
2017-04-21T12:51:57.598Z,56.80
2017-04-21T12:52:58.139Z,56.77
2017-04-21T12:53:58.659Z,56.95
2017-04-21T12:54:59.336Z,57.87
2017-04-21T12:55:59.721Z,57.61
2017-04-21T12:57:00.251Z,57.76
2017-04-21T12:58:00.778Z,58.27
2017-04-21T12:59:01.311Z,58.61
2017-04-21T13:00:01.839Z,58.64
2017-04-21T13:01:02.389Z,58.07
2017-04-21T13:02:03.046Z,58.46
2017-04-21T13:03:03.425Z,58.40